Lunch Box — WDJ4295 — position and weather

sailwx.info

Track history (hours):
 
Tides and Currents Weather Stations Pressure Air Temp Water Temp Dewpoint Dewpoint Depression Visibility Wind Speed Wind Dir Waves Ship Positions

Lunch Box

Owner: HNY Ferry Fleet, New York, NY. More information available from US FCC via Universal Licensing System and Coast Guard Vessel Documentation Center.

Last reported at 2018-May-22 19:30 UTC. Time now 2018-May-22 19:42 UTC.
Position N 40°42' W 074°00'.

Length 26 m; draft 2 m.

Type: Passenger vessel. MMSI: 367776270.

Date/timePositionNaut miles runAvg speedWind from/ knotsBaromVisibWave heightAir tempDewpointWater temp
2018-May-22 19:30N 40°42' W 074°00'1 2.5
2018-May-22 19:01N 40°42' W 073°59'0 0.5
2018-May-22 18:30N 40°42' W 073°58'0 0.0
2018-May-22 18:00N 40°42' W 073°58'0 0.2
2018-May-22 17:30N 40°42' W 073°58'0 0.1
2018-May-22 16:30N 40°42' W 073°58'5 9.5
2018-May-22 16:00N 40°38' W 074°02'3 6.5
2018-May-22 15:31N 40°41' W 074°01'2 3.7
2018-May-22 15:00N 40°42' W 073°58'2 3.0
2018-May-22 14:30N 40°42' W 074°00'3 6.7
2018-May-22 14:01N 40°39' W 074°02'3 6.3
2018-May-22 13:31N 40°41' W 074°00'0 0.5
2018-May-22 13:01N 40°42' W 074°00'3 6.8
2018-May-22 12:31N 40°39' W 074°02'3 5.6
2018-May-22 12:00N 40°41' W 074°01'1 1.4
2018-May-22 11:30N 40°42' W 074°00'3 6.2
2018-May-22 11:01N 40°39' W 074°02'4 8.4
2018-May-22 10:31N 40°42' W 073°58'0 0.0
2018-May-22 10:00N 40°42' W 073°58'0 0.0
2018-May-22 02:26N 40°42' W 073°58'1 3.3
2018-May-22 02:01N 40°42' W 074°00'4 7.2
2018-May-22 01:28N 40°45' W 073°57'0 0.4
2018-May-22 01:00N 40°45' W 073°57'4 7.9
2018-May-22 00:31N 40°42' W 074°00'4 6.8
2018-May-21 23:55N 40°45' W 073°57'1 1.9
2018-May-21 23:30N 40°45' W 073°58'3 6.4
2018-May-21 23:00N 40°42' W 074°00'3 7.0
2018-May-21 22:31N 40°45' W 073°58'1 0.9
2018-May-21 21:57N 40°45' W 073°57'4 8.4
2018-May-21 21:30N 40°42' W 073°60'3 5.7
2018-May-21 21:01N 40°45' W 073°58'1 2.4
2018-May-21 20:29N 40°46' W 073°57'3 7.3
2018-May-21 20:00N 40°43' W 073°59'2 4.5
2018-May-21 19:30N 40°45' W 073°58'1 1.6
2018-May-21 18:51N 40°45' W 073°57'3 9.3
2018-May-21 18:31N 40°43' W 073°59'2 4.3
2018-May-21 18:00N 40°45' W 073°58'1 1.4
2018-May-21 17:20N 40°45' W 073°57'3 8.3
2018-May-21 17:01N 40°43' W 073°58'2 3.8
2018-May-21 16:30N 40°45' W 073°58'1 1.7
2018-May-21 15:49N 40°45' W 073°57'2 7.2
2018-May-21 15:31N 40°43' W 073°58'1 2.6
2018-May-21 15:00N 40°45' W 073°58'1 2.2
2018-May-21 14:23N 40°46' W 073°57'2 6.2
2018-May-21 14:01N 40°43' W 073°58'1 2.4
2018-May-21 13:30N 40°45' W 073°58'1 2.0
2018-May-21 12:54N 40°45' W 073°57'3 8.7
2018-May-21 12:30N 40°42' W 073°59'3 5.5
2018-May-21 12:00N 40°45' W 073°57'1 1.4
2018-May-21 11:27N 40°46' W 073°57'4 8.2
2018-May-21 11:00N 40°42' W 073°58'0 0.2
2018-May-21 10:30N 40°42' W 073°58'0 0.0
2018-May-21 04:24N 40°42' W 073°58'0 0.0
2018-May-20 21:37N 40°42' W 073°58'0 0.1
2018-May-20 21:30N 40°42' W 073°58'0 0.1
2018-May-20 21:00N 40°42' W 073°58'2 3.5
2018-May-20 20:31N 40°44' W 073°58'2 2.9
2018-May-20 19:51N 40°46' W 073°57'1 4.2
2018-May-20 19:31N 40°44' W 073°58'1 1.1
2018-May-20 19:00N 40°44' W 073°58'2 1.5
2018-May-20 17:50N 40°45' W 073°57'2 7.4
2018-May-20 17:30N 40°43' W 073°58'0 0.4
2018-May-20 17:00N 40°43' W 073°58'3 2.4
2018-May-20 15:48N 40°46' W 073°57'1 3.8
2018-May-20 15:30N 40°45' W 073°58'2 3.6
2018-May-20 15:00N 40°43' W 073°58'3 2.3
2018-May-20 13:49N 40°45' W 073°57'2 6.1
2018-May-20 13:31N 40°44' W 073°58'2 0.1
2018-May-19 18:45N 40°42' W 073°58'2 6.5
2018-May-19 18:30N 40°42' W 074°00'2 3.1
2018-May-19 18:00N 40°42' W 073°58'0 0.0
2018-May-18 21:54N 40°42' W 073°58'1 3.7
2018-May-18 21:30N 40°44' W 073°58'1 0.7
2018-May-18 19:16N 40°42' W 073°58'1 4.9
2018-May-18 19:00N 40°43' W 073°58'2 4.3
2018-May-18 18:30N 40°42' W 074°00'3 5.1
2018-May-18 18:01N 40°44' W 073°58'1 1.4
2018-May-18 17:31N 40°43' W 073°58'2 4.3
2018-May-18 17:01N 40°42' W 074°00'3 5.7
2018-May-18 16:31N 40°44' W 073°58'1 2.1
2018-May-18 16:00N 40°43' W 073°58'2 4.2
2018-May-18 15:30N 40°42' W 074°00'3 6.0
2018-May-18 15:01N 40°45' W 073°58'1 2.5
2018-May-18 14:30N 40°43' W 073°58'2 4.2
2018-May-18 14:00N 40°42' W 074°00'2 4.4
2018-May-18 13:30N 40°43' W 073°58'0 0.7
2018-May-18 13:00N 40°44' W 073°58'2 5.0
2018-May-18 12:30N 40°42' W 074°00'3 5.1
2018-May-18 12:00N 40°44' W 073°58'0 0.6
2018-May-18 11:30N 40°44' W 073°58'2 4.3
2018-May-18 11:00N 40°42' W 074°00'1 2.8
2018-May-18 10:30N 40°42' W 073°58'0 0.0
2018-May-18 10:00N 40°42' W 073°58'0 0.0
2018-May-18 02:07N 40°42' W 073°58'0 2.2
2018-May-18 02:00N 40°42' W 073°58'0 0.6
2018-May-18 01:31N 40°43' W 073°58'2 4.2
2018-May-18 01:00N 40°45' W 073°58'2 4.3
2018-May-18 00:30N 40°43' W 073°58'1 2.4
2018-May-18 00:01N 40°42' W 073°60'3 5.5
2018-May-17 23:31N 40°45' W 073°58'2 4.1
2018-May-17 23:01N 40°43' W 073°58'1 2.2
2018-May-17 22:30N 40°42' W 073°60'3 5.1
2018-May-17 22:00N 40°45' W 073°58'2 4.3
2018-May-17 21:31N 40°43' W 073°58'2 3.3
2018-May-17 21:00N 40°42' W 074°00'3 5.2
2018-May-17 20:31N 40°44' W 073°58'1 1.4
2018-May-17 20:00N 40°43' W 073°58'2 4.3
2018-May-17 19:31N 40°42' W 074°00'3 5.0
2018-May-17 19:00N 40°44' W 073°58'1 1.2
2018-May-17 18:30N 40°43' W 073°58'2 4.3
2018-May-17 18:01N 40°42' W 074°00'3 5.3
2018-May-17 17:30N 40°44' W 073°58'1 1.7
2018-May-17 17:00N 40°43' W 073°58'2 4.0
2018-May-17 16:31N 40°42' W 074°00'2 4.9
2018-May-17 16:00N 40°44' W 073°58'1 1.4
2018-May-17 15:30N 40°43' W 073°58'2 4.3
2018-May-17 15:00N 40°42' W 074°00'3 5.3
2018-May-17 14:31N 40°44' W 073°58'1 1.6
2018-May-17 14:01N 40°43' W 073°58'2 3.5
2018-May-17 13:31N 40°42' W 073°60'3 5.5
2018-May-17 13:00N 40°45' W 073°58'2 3.8
2018-May-17 12:30N 40°43' W 073°58'2 3.3
2018-May-17 12:00N 40°42' W 074°00'3 5.1
2018-May-17 11:30N 40°44' W 073°58'1 1.2
2018-May-17 10:59N 40°43' W 073°58'2 4.4
2018-May-17 10:31N 40°42' W 074°00'2 3.2
2018-May-17 10:01N 40°42' W 073°58'0 0.0
2018-May-17 09:30N 40°42' W 073°58'0 0.0
2018-May-17 09:00N 40°42' W 073°58'0 0.0
2018-May-17 08:30N 40°42' W 073°58'0 0.0
2018-May-17 08:00N 40°42' W 073°58'0 0.0
2018-May-17 07:30N 40°42' W 073°58'0 0.0
2018-May-17 07:00N 40°42' W 073°58'0 0.0
2018-May-17 05:21N 40°42' W 073°58'0 0.0
2018-May-17 05:00N 40°42' W 073°58'0 0.0
2018-May-17 04:30N 40°42' W 073°58'0 0.0
2018-May-17 04:00N 40°42' W 073°58'0 0.0
2018-May-17 03:30N 40°42' W 073°58'0 0.0
2018-May-17 03:00N 40°42' W 073°58'0 0.0
2018-May-17 02:10N 40°42' W 073°58'2 4.1
2018-May-17 01:42N 40°44' W 073°58'2 5.8
2018-May-17 01:20N 40°42' W 073°60'0 0.1
2018-May-17 01:01N 40°42' W 073°60'3 5.6
2018-May-17 00:30N 40°45' W 073°58'2 3.8
2018-May-17 00:00N 40°43' W 073°58'2 3.3
2018-May-16 23:30N 40°42' W 074°00'2 4.3
2018-May-16 23:00N 40°43' W 073°58'1 1.9
2018-May-16 22:30N 40°44' W 073°58'2 4.9
2018-May-16 22:00N 40°42' W 073°60'2 3.5
2018-May-16 21:30N 40°43' W 073°58'1 1.2
2018-May-16 21:01N 40°44' W 073°58'3 5.0
2018-May-16 20:30N 40°42' W 074°00'4 8.7
2018-May-16 20:00N 40°38' W 074°03'0 0.4
2018-May-16 19:31N 40°38' W 074°02'5 9.9
2018-May-16 19:01N 40°42' W 073°58'0 0.0
2018-May-16 18:31N 40°42' W 073°58'1 2.1
2018-May-16 18:00N 40°42' W 073°60'1 2.1
2018-May-16 17:30N 40°42' W 073°58'0 0.0
2018-May-16 15:28N 40°42' W 073°58'1 2.2
2018-May-16 15:00N 40°42' W 073°59'3 5.8
2018-May-16 14:30N 40°45' W 073°57'1 1.2
2018-May-16 14:00N 40°45' W 073°57'4 8.2
2018-May-16 13:30N 40°42' W 074°00'3 5.9
2018-May-16 13:00N 40°45' W 073°58'2 4.5
2018-May-16 12:30N 40°46' W 073°56'4 8.0
2018-May-16 12:01N 40°43' W 073°58'1 2.3
2018-May-16 11:30N 40°42' W 073°60'5 7.9
2018-May-16 10:54N 40°46' W 073°56'411.5
2018-May-16 10:31N 40°42' W 073°58'0 0.0
2018-May-16 00:30N 40°42' W 073°58'2 3.1
2018-May-16 00:01N 40°42' W 074°00'0 0.0
2018-May-15 23:31N 40°42' W 074°00'2 4.2
2018-May-15 23:01N 40°43' W 073°58'0 0.0
2018-May-15 22:30N 40°43' W 073°58'1 2.5
2018-May-15 22:00N 40°42' W 073°58'0 0.0
2018-May-15 21:30N 40°42' W 073°58'2 3.7
2018-May-15 21:00N 40°44' W 073°58'2 4.9
2018-May-15 20:31N 40°42' W 074°00'1 2.8
2018-May-15 20:01N 40°41' W 074°01'3 5.0
2018-May-15 19:30N 40°39' W 074°03'5 9.2
2018-May-15 19:00N 40°42' W 073°58'0 0.1
2018-May-15 18:31N 40°42' W 073°58'1 2.7
2018-May-15 18:00N 40°42' W 074°00'1 2.4
2018-May-15 17:29N 40°42' W 073°58'0 0.0
2018-May-15 17:01N 40°42' W 073°58'1 2.1
2018-May-15 16:31N 40°42' W 073°60'2 3.8
2018-May-15 15:59N 40°43' W 074°02'2 4.5
2018-May-15 15:31N 40°42' W 073°60'1 2.0
2018-May-15 15:00N 40°42' W 073°58'1 2.1
2018-May-15 14:30N 40°42' W 073°60'3 5.2
2018-May-15 14:00N 40°45' W 073°58'2 4.3
2018-May-15 13:31N 40°43' W 073°58'0 0.7
2018-May-15 13:00N 40°42' W 073°59'2 4.5
2018-May-15 12:30N 40°45' W 073°58'3 5.3
2018-May-15 12:00N 40°42' W 073°60'1 2.2
2018-May-15 11:30N 40°42' W 073°58'0 0.0
2018-May-15 11:00N 40°42' W 073°58'0 0.0
2018-May-15 10:30N 40°42' W 073°58'0 0.0
2018-May-15 10:00N 40°42' W 073°58'0 0.0
2018-May-15 09:30N 40°42' W 073°58'0 0.0
2018-May-15 02:16N 40°42' W 073°58'1 3.9
2018-May-15 02:01N 40°43' W 073°58'0 0.9
2018-May-15 01:31N 40°43' W 073°58'1 2.4
2018-May-15 01:00N 40°42' W 073°60'3 5.5
2018-May-15 00:30N 40°45' W 073°58'2 4.0
2018-May-15 00:01N 40°43' W 073°58'2 3.3
2018-May-14 23:30N 40°42' W 074°00'3 5.1
2018-May-14 23:00N 40°44' W 073°58'0 0.0
2018-May-14 22:31N 40°44' W 073°58'3 5.1
2018-May-14 22:01N 40°42' W 074°00'2 4.3
2018-May-14 21:31N 40°43' W 073°58'1 1.2
2018-May-14 21:01N 40°44' W 073°58'3 5.1
2018-May-14 20:31N 40°42' W 074°00'2 3.1
2018-May-14 20:00N 40°42' W 073°58'5 9.8
2018-May-14 19:30N 40°38' W 074°03'3 6.9
2018-May-14 19:01N 40°41' W 074°01'2 3.5
2018-May-14 18:30N 40°42' W 073°58'0 0.0
2018-May-14 18:00N 40°42' W 073°58'0 0.4
2018-May-14 17:30N 40°42' W 073°58'0 0.0
2018-May-14 17:00N 40°42' W 073°58'0 0.0
2018-May-14 16:30N 40°42' W 073°58'0 0.4
2018-May-14 16:00N 40°42' W 073°58'0 0.0
2018-May-14 15:31N 40°42' W 073°58'1 2.5
2018-May-14 15:00N 40°43' W 073°58'2 4.3
2018-May-14 14:30N 40°42' W 074°00'2 3.2
2018-May-14 14:01N 40°43' W 073°58'2 4.0
2018-May-14 13:31N 40°45' W 073°58'3 6.1
2018-May-14 13:00N 40°42' W 074°00'2 4.3
2018-May-14 12:31N 40°43' W 073°58'1 2.3
2018-May-14 12:01N 40°44' W 073°58'3 5.3
2018-May-14 11:31N 40°42' W 073°60'1 1.3
2018-May-14 11:01N 40°42' W 073°59'2 4.5
2018-May-14 10:30N 40°45' W 073°58'3 5.0
2018-May-14 10:00N 40°42' W 073°58'0 0.0
2018-May-14 09:31N 40°42' W 073°58'0 0.0
2018-May-14 03:02N 40°42' W 073°58'0 0.3
2018-May-14 03:00N 40°42' W 073°58'0 0.3
2018-May-14 02:31N 40°42' W 073°58'5 9.8
2018-May-14 02:00N 40°38' W 074°02'3 6.8
2018-May-14 01:31N 40°41' W 074°00'0 0.4
2018-May-14 01:00N 40°42' W 074°00'4 6.9
2018-May-14 00:30N 40°38' W 074°02'0 0.0
2018-May-14 00:01N 40°38' W 074°02'4 7.1
2018-May-13 23:30N 40°42' W 074°00'0 0.6
2018-May-13 23:01N 40°42' W 074°00'4 7.6
2018-May-13 22:31N 40°38' W 074°02'0 0.0
2018-May-13 22:01N 40°38' W 074°02'4 7.1
2018-May-13 21:31N 40°42' W 074°00'0 0.2
2018-May-13 21:00N 40°42' W 074°00'4 7.0
2018-May-13 20:30N 40°38' W 074°02'0 0.1
2018-May-13 20:00N 40°38' W 074°02'4 7.1
2018-May-13 19:30N 40°42' W 074°00'0 0.0
2018-May-13 19:00N 40°42' W 074°00'4 7.0
2018-May-13 18:31N 40°38' W 074°02'0 0.1
2018-May-13 18:00N 40°38' W 074°02'4 7.2
2018-May-13 17:31N 40°42' W 074°00'1 1.1
2018-May-13 17:01N 40°42' W 073°60'4 8.1
2018-May-13 16:30N 40°38' W 074°02'0 0.1
2018-May-13 16:00N 40°38' W 074°02'3 7.0
2018-May-13 15:31N 40°42' W 074°00'0 0.5
2018-May-13 15:01N 40°42' W 074°00'4 7.4
2018-May-13 14:31N 40°38' W 074°02'0 0.1
2018-May-13 14:00N 40°38' W 074°02'3 6.8
2018-May-13 13:30N 40°41' W 074°00'0 0.3
2018-May-13 13:00N 40°42' W 074°00'4 7.0
2018-May-13 12:30N 40°38' W 074°02'0 0.0
2018-May-13 12:00N 40°38' W 074°02'3 6.8
2018-May-13 11:30N 40°41' W 074°00'0 0.4
2018-May-13 11:00N 40°42' W 074°00'3 6.8
2018-May-13 10:30N 40°39' W 074°02'5 9.2
2018-May-13 10:00N 40°42' W 073°58'0 0.0
2018-May-13 09:30N 40°42' W 073°58'0 0.0
2018-May-13 09:00N 40°42' W 073°58'0 0.0
2018-May-13 08:29N 40°42' W 073°58'0 0.0
2018-May-13 08:00N 40°42' W 073°58'0 0.0
2018-May-13 07:30N 40°42' W 073°58'0 0.0
2018-May-13 07:00N 40°42' W 073°58'0 0.0
2018-May-13 06:30N 40°42' W 073°58'0 0.0
2018-May-13 06:00N 40°42' W 073°58'0 0.0
2018-May-13 05:30N 40°42' W 073°58'0 0.0
2018-May-13 05:00N 40°42' W 073°58'0 0.0
2018-May-13 04:30N 40°42' W 073°58'0 0.0
2018-May-13 04:00N 40°42' W 073°58'0 0.0
2018-May-13 03:30N 40°42' W 073°58'0 0.0
2018-May-13 03:00N 40°42' W 073°58'0 0.3
2018-May-13 02:30N 40°42' W 073°58'2 3.1
2018-May-13 02:00N 40°42' W 074°00'4 7.1
2018-May-13 01:31N 40°38' W 074°02'0 0.1
2018-May-13 01:00N 40°38' W 074°02'4 7.1
2018-May-13 00:30N 40°42' W 074°00'0 0.4
2018-May-13 00:00N 40°42' W 074°00'4 7.3
2018-May-12 23:30N 40°38' W 074°02'1 1.2
2018-May-12 23:01N 40°39' W 074°02'3 5.8
2018-May-12 22:31N 40°42' W 074°00'0 0.1
2018-May-12 22:00N 40°42' W 074°00'4 7.1
2018-May-12 21:31N 40°38' W 074°02'0 0.0
2018-May-12 21:01N 40°38' W 074°02'4 7.0
2018-May-12 20:30N 40°42' W 074°00'0 0.1
2018-May-12 20:00N 40°42' W 074°00'4 7.0
2018-May-12 19:30N 40°38' W 074°02'  
Track history (hours):
 
Tides and Currents Weather Stations Pressure Air Temp Water Temp Dewpoint Dewpoint Depression Visibility Wind Speed Wind Dir Waves Ship Positions

Lunch Box

Owner: HNY Ferry Fleet, New York, NY. More information available from US FCC via Universal Licensing System and Coast Guard Vessel Documentation Center.

Last reported at 2018-May-22 19:30 UTC. Time now 2018-May-22 19:42 UTC.
Position N 40°42' W 074°00'.

Length 26 m; draft 2 m.

Type: Passenger vessel. MMSI: 367776270.

Date/timePositionNaut miles runAvg speedWind from/ knotsBaromVisibWave heightAir tempDewpointWater temp
2018-May-22 19:30N 40°42' W 074°00'1 2.5
2018-May-22 19:01N 40°42' W 073°59'0 0.5
2018-May-22 18:30N 40°42' W 073°58'0 0.0
2018-May-22 18:00N 40°42' W 073°58'0 0.2
2018-May-22 17:30N 40°42' W 073°58'0 0.1
2018-May-22 16:30N 40°42' W 073°58'5 9.5
2018-May-22 16:00N 40°38' W 074°02'3 6.5
2018-May-22 15:31N 40°41' W 074°01'2 3.7
2018-May-22 15:00N 40°42' W 073°58'2 3.0
2018-May-22 14:30N 40°42' W 074°00'3 6.7
2018-May-22 14:01N 40°39' W 074°02'3 6.3
2018-May-22 13:31N 40°41' W 074°00'0 0.5
2018-May-22 13:01N 40°42' W 074°00'3 6.8
2018-May-22 12:31N 40°39' W 074°02'3 5.6
2018-May-22 12:00N 40°41' W 074°01'1 1.4
2018-May-22 11:30N 40°42' W 074°00'3 6.2
2018-May-22 11:01N 40°39' W 074°02'4 8.4
2018-May-22 10:31N 40°42' W 073°58'0 0.0
2018-May-22 10:00N 40°42' W 073°58'0 0.0
2018-May-22 02:26N 40°42' W 073°58'1 3.3
2018-May-22 02:01N 40°42' W 074°00'4 7.2
2018-May-22 01:28N 40°45' W 073°57'0 0.4
2018-May-22 01:00N 40°45' W 073°57'4 7.9
2018-May-22 00:31N 40°42' W 074°00'4 6.8
2018-May-21 23:55N 40°45' W 073°57'1 1.9
2018-May-21 23:30N 40°45' W 073°58'3 6.4
2018-May-21 23:00N 40°42' W 074°00'3 7.0
2018-May-21 22:31N 40°45' W 073°58'1 0.9
2018-May-21 21:57N 40°45' W 073°57'4 8.4
2018-May-21 21:30N 40°42' W 073°60'3 5.7
2018-May-21 21:01N 40°45' W 073°58'1 2.4
2018-May-21 20:29N 40°46' W 073°57'3 7.3
2018-May-21 20:00N 40°43' W 073°59'2 4.5
2018-May-21 19:30N 40°45' W 073°58'1 1.6
2018-May-21 18:51N 40°45' W 073°57'3 9.3
2018-May-21 18:31N 40°43' W 073°59'2 4.3
2018-May-21 18:00N 40°45' W 073°58'1 1.4
2018-May-21 17:20N 40°45' W 073°57'3 8.3
2018-May-21 17:01N 40°43' W 073°58'2 3.8
2018-May-21 16:30N 40°45' W 073°58'1 1.7
2018-May-21 15:49N 40°45' W 073°57'2 7.2
2018-May-21 15:31N 40°43' W 073°58'1 2.6
2018-May-21 15:00N 40°45' W 073°58'1 2.2
2018-May-21 14:23N 40°46' W 073°57'2 6.2
2018-May-21 14:01N 40°43' W 073°58'1 2.4
2018-May-21 13:30N 40°45' W 073°58'1 2.0
2018-May-21 12:54N 40°45' W 073°57'3 8.7
2018-May-21 12:30N 40°42' W 073°59'3 5.5
2018-May-21 12:00N 40°45' W 073°57'1 1.4
2018-May-21 11:27N 40°46' W 073°57'4 8.2
2018-May-21 11:00N 40°42' W 073°58'0 0.2
2018-May-21 10:30N 40°42' W 073°58'0 0.0
2018-May-21 04:24N 40°42' W 073°58'0 0.0
2018-May-20 21:37N 40°42' W 073°58'0 0.1
2018-May-20 21:30N 40°42' W 073°58'0 0.1
2018-May-20 21:00N 40°42' W 073°58'2 3.5
2018-May-20 20:31N 40°44' W 073°58'2 2.9
2018-May-20 19:51N 40°46' W 073°57'1 4.2
2018-May-20 19:31N 40°44' W 073°58'1 1.1
2018-May-20 19:00N 40°44' W 073°58'2 1.5
2018-May-20 17:50N 40°45' W 073°57'2 7.4
2018-May-20 17:30N 40°43' W 073°58'0 0.4
2018-May-20 17:00N 40°43' W 073°58'3 2.4
2018-May-20 15:48N 40°46' W 073°57'1 3.8
2018-May-20 15:30N 40°45' W 073°58'2 3.6
2018-May-20 15:00N 40°43' W 073°58'3 2.3
2018-May-20 13:49N 40°45' W 073°57'2 6.1
2018-May-20 13:31N 40°44' W 073°58'2 0.1
2018-May-19 18:45N 40°42' W 073°58'2 6.5
2018-May-19 18:30N 40°42' W 074°00'2 3.1
2018-May-19 18:00N 40°42' W 073°58'0 0.0
2018-May-18 21:54N 40°42' W 073°58'1 3.7
2018-May-18 21:30N 40°44' W 073°58'1 0.7
2018-May-18 19:16N 40°42' W 073°58'1 4.9
2018-May-18 19:00N 40°43' W 073°58'2 4.3
2018-May-18 18:30N 40°42' W 074°00'3 5.1
2018-May-18 18:01N 40°44' W 073°58'1 1.4
2018-May-18 17:31N 40°43' W 073°58'2 4.3
2018-May-18 17:01N 40°42' W 074°00'3 5.7
2018-May-18 16:31N 40°44' W 073°58'1 2.1
2018-May-18 16:00N 40°43' W 073°58'2 4.2
2018-May-18 15:30N 40°42' W 074°00'3 6.0
2018-May-18 15:01N 40°45' W 073°58'1 2.5
2018-May-18 14:30N 40°43' W 073°58'2 4.2
2018-May-18 14:00N 40°42' W 074°00'2 4.4
2018-May-18 13:30N 40°43' W 073°58'0 0.7
2018-May-18 13:00N 40°44' W 073°58'2 5.0
2018-May-18 12:30N 40°42' W 074°00'3 5.1
2018-May-18 12:00N 40°44' W 073°58'0 0.6
2018-May-18 11:30N 40°44' W 073°58'2 4.3
2018-May-18 11:00N 40°42' W 074°00'1 2.8
2018-May-18 10:30N 40°42' W 073°58'0 0.0
2018-May-18 10:00N 40°42' W 073°58'0 0.0
2018-May-18 02:07N 40°42' W 073°58'0 2.2
2018-May-18 02:00N 40°42' W 073°58'0 0.6
2018-May-18 01:31N 40°43' W 073°58'2 4.2
2018-May-18 01:00N 40°45' W 073°58'2 4.3
2018-May-18 00:30N 40°43' W 073°58'1 2.4
2018-May-18 00:01N 40°42' W 073°60'3 5.5
2018-May-17 23:31N 40°45' W 073°58'2 4.1
2018-May-17 23:01N 40°43' W 073°58'1 2.2
2018-May-17 22:30N 40°42' W 073°60'3 5.1
2018-May-17 22:00N 40°45' W 073°58'2 4.3
2018-May-17 21:31N 40°43' W 073°58'2 3.3
2018-May-17 21:00N 40°42' W 074°00'3 5.2
2018-May-17 20:31N 40°44' W 073°58'1 1.4
2018-May-17 20:00N 40°43' W 073°58'2 4.3
2018-May-17 19:31N 40°42' W 074°00'3 5.0
2018-May-17 19:00N 40°44' W 073°58'1 1.2
2018-May-17 18:30N 40°43' W 073°58'2 4.3
2018-May-17 18:01N 40°42' W 074°00'3 5.3
2018-May-17 17:30N 40°44' W 073°58'1 1.7
2018-May-17 17:00N 40°43' W 073°58'2 4.0
2018-May-17 16:31N 40°42' W 074°00'2 4.9
2018-May-17 16:00N 40°44' W 073°58'1 1.4
2018-May-17 15:30N 40°43' W 073°58'2 4.3
2018-May-17 15:00N 40°42' W 074°00'3 5.3
2018-May-17 14:31N 40°44' W 073°58'1 1.6
2018-May-17 14:01N 40°43' W 073°58'2 3.5
2018-May-17 13:31N 40°42' W 073°60'3 5.5
2018-May-17 13:00N 40°45' W 073°58'2 3.8
2018-May-17 12:30N 40°43' W 073°58'2 3.3
2018-May-17 12:00N 40°42' W 074°00'3 5.1
2018-May-17 11:30N 40°44' W 073°58'1 1.2
2018-May-17 10:59N 40°43' W 073°58'2 4.4
2018-May-17 10:31N 40°42' W 074°00'2 3.2
2018-May-17 10:01N 40°42' W 073°58'0 0.0
2018-May-17 09:30N 40°42' W 073°58'0 0.0
2018-May-17 09:00N 40°42' W 073°58'0 0.0
2018-May-17 08:30N 40°42' W 073°58'0 0.0
2018-May-17 08:00N 40°42' W 073°58'0 0.0
2018-May-17 07:30N 40°42' W 073°58'0 0.0
2018-May-17 07:00N 40°42' W 073°58'0 0.0
2018-May-17 05:21N 40°42' W 073°58'0 0.0
2018-May-17 05:00N 40°42' W 073°58'0 0.0
2018-May-17 04:30N 40°42' W 073°58'0 0.0
2018-May-17 04:00N 40°42' W 073°58'0 0.0
2018-May-17 03:30N 40°42' W 073°58'0 0.0
2018-May-17 03:00N 40°42' W 073°58'0 0.0
2018-May-17 02:10N 40°42' W 073°58'2 4.1
2018-May-17 01:42N 40°44' W 073°58'2 5.8
2018-May-17 01:20N 40°42' W 073°60'0 0.1
2018-May-17 01:01N 40°42' W 073°60'3 5.6
2018-May-17 00:30N 40°45' W 073°58'2 3.8
2018-May-17 00:00N 40°43' W 073°58'2 3.3
2018-May-16 23:30N 40°42' W 074°00'2 4.3
2018-May-16 23:00N 40°43' W 073°58'1 1.9
2018-May-16 22:30N 40°44' W 073°58'2 4.9
2018-May-16 22:00N 40°42' W 073°60'2 3.5
2018-May-16 21:30N 40°43' W 073°58'1 1.2
2018-May-16 21:01N 40°44' W 073°58'3 5.0
2018-May-16 20:30N 40°42' W 074°00'4 8.7
2018-May-16 20:00N 40°38' W 074°03'0 0.4
2018-May-16 19:31N 40°38' W 074°02'5 9.9
2018-May-16 19:01N 40°42' W 073°58'0 0.0
2018-May-16 18:31N 40°42' W 073°58'1 2.1
2018-May-16 18:00N 40°42' W 073°60'1 2.1
2018-May-16 17:30N 40°42' W 073°58'0 0.0
2018-May-16 15:28N 40°42' W 073°58'1 2.2
2018-May-16 15:00N 40°42' W 073°59'3 5.8
2018-May-16 14:30N 40°45' W 073°57'1 1.2
2018-May-16 14:00N 40°45' W 073°57'4 8.2
2018-May-16 13:30N 40°42' W 074°00'3 5.9
2018-May-16 13:00N 40°45' W 073°58'2 4.5
2018-May-16 12:30N 40°46' W 073°56'4 8.0
2018-May-16 12:01N 40°43' W 073°58'1 2.3
2018-May-16 11:30N 40°42' W 073°60'5 7.9
2018-May-16 10:54N 40°46' W 073°56'411.5
2018-May-16 10:31N 40°42' W 073°58'0 0.0
2018-May-16 00:30N 40°42' W 073°58'2 3.1
2018-May-16 00:01N 40°42' W 074°00'0 0.0
2018-May-15 23:31N 40°42' W 074°00'2 4.2
2018-May-15 23:01N 40°43' W 073°58'0 0.0
2018-May-15 22:30N 40°43' W 073°58'1 2.5
2018-May-15 22:00N 40°42' W 073°58'0 0.0
2018-May-15 21:30N 40°42' W 073°58'2 3.7
2018-May-15 21:00N 40°44' W 073°58'2 4.9
2018-May-15 20:31N 40°42' W 074°00'1 2.8
2018-May-15 20:01N 40°41' W 074°01'3 5.0
2018-May-15 19:30N 40°39' W 074°03'5 9.2
2018-May-15 19:00N 40°42' W 073°58'0 0.1
2018-May-15 18:31N 40°42' W 073°58'1 2.7
2018-May-15 18:00N 40°42' W 074°00'1 2.4
2018-May-15 17:29N 40°42' W 073°58'0 0.0
2018-May-15 17:01N 40°42' W 073°58'1 2.1
2018-May-15 16:31N 40°42' W 073°60'2 3.8
2018-May-15 15:59N 40°43' W 074°02'2 4.5
2018-May-15 15:31N 40°42' W 073°60'1 2.0
2018-May-15 15:00N 40°42' W 073°58'1 2.1
2018-May-15 14:30N 40°42' W 073°60'3 5.2
2018-May-15 14:00N 40°45' W 073°58'2 4.3
2018-May-15 13:31N 40°43' W 073°58'0 0.7
2018-May-15 13:00N 40°42' W 073°59'2 4.5
2018-May-15 12:30N 40°45' W 073°58'3 5.3
2018-May-15 12:00N 40°42' W 073°60'1 2.2
2018-May-15 11:30N 40°42' W 073°58'0 0.0
2018-May-15 11:00N 40°42' W 073°58'0 0.0
2018-May-15 10:30N 40°42' W 073°58'0 0.0
2018-May-15 10:00N 40°42' W 073°58'0 0.0
2018-May-15 09:30N 40°42' W 073°58'0 0.0
2018-May-15 02:16N 40°42' W 073°58'1 3.9
2018-May-15 02:01N 40°43' W 073°58'0 0.9
2018-May-15 01:31N 40°43' W 073°58'1 2.4
2018-May-15 01:00N 40°42' W 073°60'3 5.5
2018-May-15 00:30N 40°45' W 073°58'2 4.0
2018-May-15 00:01N 40°43' W 073°58'2 3.3
2018-May-14 23:30N 40°42' W 074°00'3 5.1
2018-May-14 23:00N 40°44' W 073°58'0 0.0
2018-May-14 22:31N 40°44' W 073°58'3 5.1
2018-May-14 22:01N 40°42' W 074°00'2 4.3
2018-May-14 21:31N 40°43' W 073°58'1 1.2
2018-May-14 21:01N 40°44' W 073°58'3 5.1
2018-May-14 20:31N 40°42' W 074°00'2 3.1
2018-May-14 20:00N 40°42' W 073°58'5 9.8
2018-May-14 19:30N 40°38' W 074°03'3 6.9
2018-May-14 19:01N 40°41' W 074°01'2 3.5
2018-May-14 18:30N 40°42' W 073°58'0 0.0
2018-May-14 18:00N 40°42' W 073°58'0 0.4
2018-May-14 17:30N 40°42' W 073°58'0 0.0
2018-May-14 17:00N 40°42' W 073°58'0 0.0
2018-May-14 16:30N 40°42' W 073°58'0 0.4
2018-May-14 16:00N 40°42' W 073°58'0 0.0
2018-May-14 15:31N 40°42' W 073°58'1 2.5
2018-May-14 15:00N 40°43' W 073°58'2 4.3
2018-May-14 14:30N 40°42' W 074°00'2 3.2
2018-May-14 14:01N 40°43' W 073°58'2 4.0
2018-May-14 13:31N 40°45' W 073°58'3 6.1
2018-May-14 13:00N 40°42' W 074°00'2 4.3
2018-May-14 12:31N 40°43' W 073°58'1 2.3
2018-May-14 12:01N 40°44' W 073°58'3 5.3
2018-May-14 11:31N 40°42' W 073°60'1 1.3
2018-May-14 11:01N 40°42' W 073°59'2 4.5
2018-May-14 10:30N 40°45' W 073°58'3 5.0
2018-May-14 10:00N 40°42' W 073°58'0 0.0
2018-May-14 09:31N 40°42' W 073°58'0 0.0
2018-May-14 03:02N 40°42' W 073°58'0 0.3
2018-May-14 03:00N 40°42' W 073°58'0 0.3
2018-May-14 02:31N 40°42' W 073°58'5 9.8
2018-May-14 02:00N 40°38' W 074°02'3 6.8
2018-May-14 01:31N 40°41' W 074°00'0 0.4
2018-May-14 01:00N 40°42' W 074°00'4 6.9
2018-May-14 00:30N 40°38' W 074°02'0 0.0
2018-May-14 00:01N 40°38' W 074°02'4 7.1
2018-May-13 23:30N 40°42' W 074°00'0 0.6
2018-May-13 23:01N 40°42' W 074°00'4 7.6
2018-May-13 22:31N 40°38' W 074°02'0 0.0
2018-May-13 22:01N 40°38' W 074°02'4 7.1
2018-May-13 21:31N 40°42' W 074°00'0 0.2
2018-May-13 21:00N 40°42' W 074°00'4 7.0
2018-May-13 20:30N 40°38' W 074°02'0 0.1
2018-May-13 20:00N 40°38' W 074°02'4 7.1
2018-May-13 19:30N 40°42' W 074°00'0 0.0
2018-May-13 19:00N 40°42' W 074°00'4 7.0
2018-May-13 18:31N 40°38' W 074°02'0 0.1
2018-May-13 18:00N 40°38' W 074°02'4 7.2
2018-May-13 17:31N 40°42' W 074°00'1 1.1
2018-May-13 17:01N 40°42' W 073°60'4 8.1
2018-May-13 16:30N 40°38' W 074°02'0 0.1
2018-May-13 16:00N 40°38' W 074°02'3 7.0
2018-May-13 15:31N 40°42' W 074°00'0 0.5
2018-May-13 15:01N 40°42' W 074°00'4 7.4
2018-May-13 14:31N 40°38' W 074°02'0 0.1
2018-May-13 14:00N 40°38' W 074°02'3 6.8
2018-May-13 13:30N 40°41' W 074°00'0 0.3
2018-May-13 13:00N 40°42' W 074°00'4 7.0
2018-May-13 12:30N 40°38' W 074°02'0 0.0
2018-May-13 12:00N 40°38' W 074°02'3 6.8
2018-May-13 11:30N 40°41' W 074°00'0 0.4
2018-May-13 11:00N 40°42' W 074°00'3 6.8
2018-May-13 10:30N 40°39' W 074°02'5 9.2
2018-May-13 10:00N 40°42' W 073°58'0 0.0
2018-May-13 09:30N 40°42' W 073°58'0 0.0
2018-May-13 09:00N 40°42' W 073°58'0 0.0
2018-May-13 08:29N 40°42' W 073°58'0 0.0
2018-May-13 08:00N 40°42' W 073°58'0 0.0
2018-May-13 07:30N 40°42' W 073°58'0 0.0
2018-May-13 07:00N 40°42' W 073°58'0 0.0
2018-May-13 06:30N 40°42' W 073°58'0 0.0
2018-May-13 06:00N 40°42' W 073°58'0 0.0
2018-May-13 05:30N 40°42' W 073°58'0 0.0
2018-May-13 05:00N 40°42' W 073°58'0 0.0
2018-May-13 04:30N 40°42' W 073°58'0 0.0
2018-May-13 04:00N 40°42' W 073°58'0 0.0
2018-May-13 03:30N 40°42' W 073°58'0 0.0
2018-May-13 03:00N 40°42' W 073°58'0 0.3
2018-May-13 02:30N 40°42' W 073°58'2 3.1
2018-May-13 02:00N 40°42' W 074°00'4 7.1
2018-May-13 01:31N 40°38' W 074°02'0 0.1
2018-May-13 01:00N 40°38' W 074°02'4 7.1
2018-May-13 00:30N 40°42' W 074°00'0 0.4
2018-May-13 00:00N 40°42' W 074°00'4 7.3
2018-May-12 23:30N 40°38' W 074°02'1 1.2
2018-May-12 23:01N 40°39' W 074°02'3 5.8
2018-May-12 22:31N 40°42' W 074°00'0 0.1
2018-May-12 22:00N 40°42' W 074°00'4 7.1
2018-May-12 21:31N 40°38' W 074°02'0 0.0
2018-May-12 21:01N 40°38' W 074°02'4 7.0
2018-May-12 20:30N 40°42' W 074°00'0 0.1
2018-May-12 20:00N 40°42' W 074°00'4 7.0
2018-May-12 19:30N 40°38' W 074°02'  

Dump ship's entire track history